createdAt,value
2023-04-21T00:01:50.843Z,5.97
2023-04-21T00:06:56.790Z,6.30
2023-04-21T00:12:02.435Z,6.00
2023-04-21T00:17:08.118Z,6.30
2023-04-21T00:22:15.096Z,6.67
2023-04-21T00:27:20.680Z,5.87
2023-04-21T00:32:26.492Z,6.80
2023-04-21T00:37:32.002Z,6.03
2023-04-21T00:42:37.679Z,7.10
2023-04-21T00:47:44.226Z,6.60
2023-04-21T00:52:50.531Z,6.37
2023-04-21T00:57:56.938Z,7.23
2023-04-21T01:03:05.811Z,6.43
2023-04-21T01:08:12.045Z,7.33
2023-04-21T01:13:18.976Z,6.53
2023-04-21T01:18:25.176Z,6.50
2023-04-21T01:23:30.704Z,7.07
2023-04-21T01:28:36.954Z,7.30
2023-04-21T01:33:42.963Z,6.83
2023-04-21T01:38:49.464Z,6.90
2023-04-21T01:43:55.162Z,7.47
2023-04-21T01:49:02.167Z,6.63
2023-04-21T01:54:07.946Z,6.77
2023-04-21T01:59:13.465Z,7.13
2023-04-21T02:04:19.210Z,6.77
2023-04-21T02:09:24.705Z,6.83
2023-04-21T02:14:31.378Z,7.40
2023-04-21T02:19:37.833Z,7.30
2023-04-21T02:24:43.364Z,7.03
2023-04-21T02:29:50.001Z,6.87
2023-04-21T02:34:55.494Z,7.60
2023-04-21T02:40:03.833Z,6.93
2023-04-21T02:45:10.597Z,7.20
2023-04-21T02:50:17.717Z,7.10
2023-04-21T02:55:23.304Z,7.23
2023-04-21T03:00:29.008Z,7.47
2023-04-21T03:05:35.336Z,7.43
2023-04-21T03:10:41.083Z,7.50
2023-04-21T03:15:46.626Z,7.50
2023-04-21T03:20:54.217Z,7.00
2023-04-21T03:26:01.494Z,6.67
2023-04-21T03:31:07.068Z,7.20
2023-04-21T03:36:12.577Z,6.97
2023-04-21T03:41:18.149Z,7.47
2023-04-21T03:46:24.089Z,7.30
2023-04-21T03:51:29.602Z,7.23
2023-04-21T03:56:35.102Z,7.30
2023-04-21T04:01:42.302Z,6.40
2023-04-21T04:06:47.849Z,6.90
2023-04-21T04:11:53.565Z,6.83
2023-04-21T04:17:00.225Z,6.97
2023-04-21T04:22:06.047Z,6.50
2023-04-21T04:27:13.763Z,6.53
2023-04-21T04:32:19.242Z,6.77
2023-04-21T04:37:25.565Z,7.17
2023-04-21T04:42:31.172Z,6.40
2023-04-21T04:47:37.590Z,6.27
2023-04-21T04:52:44.663Z,6.67
2023-04-21T04:57:50.243Z,6.57
2023-04-21T05:02:56.649Z,7.23
2023-04-21T05:08:02.430Z,7.00
2023-04-21T05:13:07.867Z,6.50
2023-04-21T05:18:13.441Z,6.13
2023-04-21T05:23:18.892Z,6.20
2023-04-21T05:28:24.407Z,6.37
2023-04-21T05:33:31.684Z,5.93
2023-04-21T05:38:38.614Z,6.20
2023-04-21T05:43:44.050Z,6.33
2023-04-21T05:48:49.503Z,6.00
2023-04-21T05:53:55.101Z,5.77
2023-04-21T05:59:00.552Z,6.17
2023-04-21T06:04:06.729Z,5.93
2023-04-21T06:09:14.342Z,6.53
2023-04-21T06:14:20.174Z,5.53
2023-04-21T06:19:26.005Z,6.37
2023-04-21T06:24:33.571Z,7.50
2023-04-21T06:29:39.643Z,6.90
2023-04-21T06:34:45.145Z,6.10
2023-04-21T06:39:50.816Z,6.20
2023-04-21T06:44:56.847Z,6.47
2023-04-21T06:50:16.487Z,5.97
2023-04-21T06:55:22.063Z,6.27
2023-04-21T07:00:27.588Z,5.97
2023-04-21T07:05:35.070Z,6.07
2023-04-21T07:10:40.502Z,6.03
2023-04-21T07:15:46.440Z,6.17
2023-04-21T07:20:54.891Z,6.03
2023-04-21T07:26:01.017Z,5.33
2023-04-21T07:31:06.892Z,5.47
2023-04-21T07:36:12.477Z,6.07
2023-04-21T07:41:18.235Z,5.97
2023-04-21T07:46:25.410Z,5.67
2023-04-21T07:51:32.058Z,4.97
2023-04-21T07:56:37.817Z,5.27
2023-04-21T08:01:43.338Z,4.53
2023-04-21T08:06:49.059Z,5.57
2023-04-21T08:11:55.368Z,5.03
2023-04-21T08:17:01.808Z,4.10
2023-04-21T08:22:07.423Z,4.70
2023-04-21T08:27:12.919Z,4.70
2023-04-21T08:32:20.107Z,4.57
2023-04-21T08:37:25.746Z,4.83
2023-04-21T08:42:31.793Z,4.87
2023-04-21T08:47:42.166Z,5.03
2023-04-21T08:52:47.727Z,4.77
2023-04-21T08:57:53.313Z,5.13
2023-04-21T09:03:02.378Z,5.07
2023-04-21T09:08:19.159Z,4.93
2023-04-21T09:13:33.140Z,4.60
2023-04-21T09:18:40.594Z,5.00
2023-04-21T09:23:48.975Z,4.70
2023-04-21T09:28:55.853Z,4.83
2023-04-21T09:34:02.169Z,5.30
2023-04-21T09:44:18.161Z,5.13
2023-04-21T09:49:26.321Z,4.60
2023-04-21T09:54:37.586Z,4.07
2023-04-21T09:59:47.562Z,4.57
2023-04-21T10:04:53.903Z,4.80
2023-04-21T10:10:01.874Z,4.50
2023-04-21T10:15:09.399Z,4.40
2023-04-21T10:20:16.770Z,4.47
2023-04-21T10:25:22.454Z,4.43
2023-04-21T10:30:29.011Z,4.53
2023-04-21T10:36:04.622Z,4.47
2023-04-21T10:41:29.702Z,4.20
2023-04-21T10:46:41.302Z,4.60
2023-04-21T10:52:05.675Z,4.43
2023-04-21T10:57:12.999Z,3.93
2023-04-21T11:02:20.030Z,4.67
2023-04-21T11:07:26.997Z,3.87
2023-04-21T11:12:38.240Z,3.60
2023-04-21T11:17:47.372Z,3.80
2023-04-21T11:22:55.932Z,2.77
2023-04-21T11:28:01.684Z,3.33
2023-04-21T11:33:07.296Z,3.33
2023-04-21T11:38:14.469Z,3.30
2023-04-21T11:43:21.449Z,3.20
2023-04-21T11:48:30.107Z,3.13
2023-04-21T11:53:35.714Z,3.13
2023-04-21T11:58:41.654Z,3.30
2023-04-21T12:04:04.245Z,3.13
2023-04-21T12:09:11.164Z,3.20
2023-04-21T12:14:17.990Z,3.90
2023-04-21T12:19:28.332Z,3.80
2023-04-21T12:24:36.212Z,2.90
2023-04-21T12:29:42.704Z,3.20
2023-04-21T12:34:49.755Z,2.70
2023-04-21T12:39:55.272Z,3.70
2023-04-21T12:45:01.787Z,3.50
2023-04-21T12:50:08.647Z,2.70
2023-04-21T12:55:14.229Z,3.07
2023-04-21T13:00:20.119Z,2.90
2023-04-21T13:05:25.626Z,3.40
2023-04-21T13:10:31.147Z,3.23
2023-04-21T13:15:37.872Z,3.70
2023-04-21T13:20:43.454Z,4.13
2023-04-21T13:31:16.619Z,3.43
2023-04-21T13:36:24.914Z,2.63
2023-04-21T13:41:30.546Z,3.47
2023-04-21T13:46:36.437Z,3.47
2023-04-21T13:51:42.274Z,3.70
2023-04-21T13:56:47.796Z,3.30
2023-04-21T14:01:57.274Z,3.50
2023-04-21T14:07:04.977Z,3.47
2023-04-21T14:12:11.422Z,3.40
2023-04-21T14:17:17.176Z,3.07
2023-04-21T14:22:22.677Z,3.80
2023-04-21T14:27:28.215Z,3.53
2023-04-21T14:32:41.323Z,3.73
2023-04-21T14:37:55.483Z,3.50
2023-04-21T14:43:06.640Z,3.40
2023-04-21T14:48:17.822Z,2.97
2023-04-21T14:53:23.819Z,3.70
2023-04-21T14:58:32.402Z,3.30
2023-04-21T15:03:38.804Z,3.23
2023-04-21T15:08:44.639Z,3.10
2023-04-21T15:13:50.526Z,2.77
2023-04-21T15:18:56.026Z,3.27
2023-04-21T15:24:01.938Z,3.10
2023-04-21T15:29:07.379Z,3.70
2023-04-21T15:34:12.832Z,3.10
2023-04-21T15:39:18.274Z,3.30
2023-04-21T15:44:23.904Z,3.20
2023-04-21T15:49:30.738Z,3.70
2023-04-21T15:54:36.789Z,3.00
2023-04-21T15:59:42.698Z,3.33
2023-04-21T16:04:48.535Z,3.57
2023-04-21T16:09:54.345Z,2.73
2023-04-21T16:15:09.350Z,3.13
2023-04-21T16:20:09.816Z,3.27
2023-04-21T16:25:20.639Z,3.17
2023-04-21T16:36:41.933Z,3.60
2023-04-21T16:41:47.910Z,2.85
2023-04-21T16:46:53.653Z,2.90
2023-04-21T16:51:59.445Z,3.23
2023-04-21T16:57:04.968Z,2.93
2023-04-21T17:02:10.629Z,2.90
2023-04-21T17:07:16.389Z,3.60
2023-04-21T17:12:22.048Z,3.13
2023-04-21T17:17:27.808Z,3.40
2023-04-21T17:22:33.376Z,3.30
2023-04-21T17:27:41.003Z,3.07
2023-04-21T17:32:46.792Z,2.50
2023-04-21T17:37:52.399Z,2.83
2023-04-21T17:42:57.949Z,2.63
2023-04-21T17:48:04.053Z,2.33
2023-04-21T17:53:09.681Z,2.67
2023-04-21T17:58:15.213Z,3.00
2023-04-21T18:03:20.860Z,3.90
2023-04-21T18:08:27.409Z,3.47
2023-04-21T18:13:32.905Z,2.97
2023-04-21T18:18:38.422Z,3.50
2023-04-21T18:23:44.803Z,3.70
2023-04-21T18:28:50.256Z,4.03
2023-04-21T18:33:56.979Z,3.23
2023-04-21T18:39:02.588Z,3.23
2023-04-21T18:44:08.241Z,3.47
2023-04-21T18:49:13.800Z,2.90
2023-04-21T18:55:07.454Z,3.30
2023-04-21T19:00:13.767Z,3.43
2023-04-21T19:11:07.816Z,3.67
2023-04-21T19:16:53.413Z,3.40
2023-04-21T19:22:12.183Z,3.97
2023-04-21T19:27:57.672Z,3.23
2023-04-21T19:33:05.458Z,3.80
2023-04-21T19:38:46.240Z,3.73
2023-04-21T19:43:51.774Z,3.77
2023-04-21T19:48:57.338Z,3.57
2023-04-21T19:54:10.754Z,3.63
2023-04-21T19:59:09.937Z,4.17
2023-04-21T20:04:16.580Z,4.20
2023-04-21T20:09:22.496Z,4.03
2023-04-21T20:14:28.077Z,3.97
2023-04-21T20:19:36.036Z,3.50
2023-04-21T20:24:44.699Z,3.63
2023-04-21T20:29:50.224Z,3.73
2023-04-21T20:34:55.729Z,3.60
2023-04-21T20:40:07.325Z,3.67
2023-04-21T20:45:12.971Z,3.83
2023-04-21T20:50:18.717Z,3.53
2023-04-21T20:55:24.523Z,3.80
2023-04-21T21:00:31.849Z,3.50
2023-04-21T21:05:38.633Z,3.47
2023-04-21T21:10:44.221Z,3.60
2023-04-21T21:15:49.724Z,3.40
2023-04-21T21:20:55.230Z,3.50
2023-04-21T21:26:02.072Z,3.87
2023-04-21T21:31:07.582Z,4.00
2023-04-21T21:36:13.038Z,3.47
2023-04-21T21:41:19.858Z,4.27
2023-04-21T21:46:25.505Z,4.17
2023-04-21T21:51:31.009Z,3.43
2023-04-21T21:56:36.822Z,3.40
2023-04-21T22:01:43.117Z,3.33
2023-04-21T22:06:49.162Z,3.07
2023-04-21T22:11:56.880Z,3.47
2023-04-21T22:17:03.037Z,3.23
2023-04-21T22:22:08.632Z,3.80
2023-04-21T22:27:14.395Z,3.87
2023-04-21T22:32:20.000Z,3.83
2023-04-21T22:37:26.117Z,4.13
2023-04-21T22:42:31.773Z,3.50
2023-04-21T22:47:37.423Z,3.80
2023-04-21T22:52:43.219Z,3.63
2023-04-21T22:57:49.860Z,4.80
2023-04-21T23:02:55.602Z,3.73
2023-04-21T23:08:01.345Z,4.60
2023-04-21T23:13:06.984Z,3.83
2023-04-21T23:18:12.499Z,4.10
2023-04-21T23:23:18.086Z,4.43
2023-04-21T23:28:24.570Z,4.73
2023-04-21T23:33:30.078Z,4.93
2023-04-21T23:38:35.522Z,4.33
2023-04-21T23:43:41.910Z,4.60
2023-04-21T23:48:47.335Z,4.30
2023-04-21T23:53:52.791Z,4.60
2023-04-21T23:58:58.574Z,4.17
